Terminal Aerodrome Forecast
Issued by NWS Springfield, MO

Home | Current Version | Previous Version | Text Only | Print | Product List | Glossary On
Versions: 1 2 3 4 5 6 7 8 9 10 11 12 13 14 15 16 17 18 19
000
FTUS43 KSGF 301700
TAFSGF
TAF
KSGF 301720Z 3018/0118 28012KT P6SM SCT250
     FM010000 VRB05KT P6SM FEW250
     FM011000 18008KT P6SM VCSH OVC100 WS020/24030KT
     FM011600 17010KT P6SM OVC250=

USA.gov is the U.S. government's official web portal to all federal, state and local government web resources and services.